Time;durP1;ratioP1;P1;durP2;ratioP2;P2;SDS_P1;SDS_P2;PMS_P1;PMS_P2;Temp;Humidity;BMP_temperature;BMP_pressure;BME280_temperature;BME280_humidity;BME280_pressure;Samples;Min_cycle;Max_cycle;Signal;HPM_P1;HPM_P2
2022/01/20 00:01:46;;;;;;;18.7;12.9;;;;;;;0.79;79.08203;943.0173;;;;
2022/01/20 00:04:04;;;;;;;18.7;12.1;;;;;;;0.6;79.93848;943.0137;;;;
2022/01/20 00:07:13;;;;;;;18.5;12.1;;;;;;;0.71;79.43652;942.9481;;;;
2022/01/20 00:09:31;;;;;;;17.8;13;;;;;;;0.79;79.51758;942.9986;;;;
2022/01/20 00:26:43;;;;;;;19.3;13.6;;;;;;;0.74;82.01758;943.1297;;;;
2022/01/20 00:29:01;;;;;;;19.2;13.5;;;;;;;0.78;81.69141;943.0266;;;;
2022/01/20 00:31:37;;;;;;;18.8;12.9;;;;;;;0.79;81.44824;943.0375;;;;
2022/01/20 00:33:52;;;;;;;18.3;12.4;;;;;;;0.91;80.56641;943.0609;;;;
2022/01/20 00:38:38;;;;;;;22.6;13.8;;;;;;;0.94;80.04688;943.0268;;;;
2022/01/20 00:41:03;;;;;;;19.9;13.2;;;;;;;0.73;80.3418;943.0461;;;;
2022/01/20 00:43:30;;;;;;;16.6;11.9;;;;;;;0.81;79.98926;943.1;;;;
2022/01/20 00:45:55;;;;;;;17.9;12.3;;;;;;;0.88;79.96973;943.0072;;;;
2022/01/20 00:48:20;;;;;;;17.3;11.8;;;;;;;0.8;80.17773;943.0575;;;;
2022/01/20 00:50:45;;;;;;;16.6;11.4;;;;;;;0.83;79.97168;943.0647;;;;
2022/01/20 00:53:11;;;;;;;16;11.7;;;;;;;0.93;79.76563;942.962;;;;
2022/01/20 00:55:36;;;;;;;16.8;11.5;;;;;;;1.04;79.5293;942.9644;;;;
2022/01/20 00:58:04;;;;;;;17.2;11.7;;;;;;;0.79;80.53125;943.0444;;;;
2022/01/20 01:00:29;;;;;;;18.4;11.9;;;;;;;0.82;81.18652;942.9581;;;;
2022/01/20 01:02:56;;;;;;;17.5;11.8;;;;;;;0.91;80.81348;943.0257;;;;
2022/01/20 01:05:20;;;;;;;16.8;12.1;;;;;;;1.12;79.70313;943.0234;;;;
2022/01/20 01:07:48;;;;;;;18;12.3;;;;;;;1.2;79.0127;943.0416;;;;
2022/01/20 01:10:11;;;;;;;17.9;12.2;;;;;;;1.18;79.23438;943.0251;;;;
2022/01/20 01:12:43;;;;;;;18.1;12.5;;;;;;;1.19;79.77051;942.933;;;;
2022/01/20 01:15:06;;;;;;;17.2;11.5;;;;;;;1.24;79.29883;943.0195;;;;
2022/01/20 01:20:16;;;;;;;17.3;12.4;;;;;;;1.19;80.09473;942.9108;;;;
2022/01/20 01:22:23;;;;;;;17.9;12.3;;;;;;;0.9;80.25391;943.0503;;;;
2022/01/20 01:24:42;;;;;;;16.6;11.2;;;;;;;1.02;79.81836;943.0474;;;;
2022/01/20 01:27:07;;;;;;;15.8;11.3;;;;;;;0.96;80.62109;943.0406;;;;
2022/01/20 01:29:52;;;;;;;18.8;12.3;;;;;;;0.76;81.28613;943.0973;;;;
2022/01/20 01:31:58;;;;;;;16.8;12.1;;;;;;;0.96;80.77734;943.1702;;;;
2022/01/20 01:34:28;;;;;;;16.3;12.2;;;;;;;1.07;80.41895;943.1658;;;;
2022/01/20 01:37:05;;;;;;;18.2;12.3;;;;;;;1.18;80.11719;942.9506;;;;
2022/01/20 01:39:14;;;;;;;15.4;11.5;;;;;;;1.29;79.28613;943.1398;;;;
2022/01/20 01:41:39;;;;;;;17.2;11.1;;;;;;;1.26;79.48242;943.1752;;;;
2022/01/20 01:44:08;;;;;;;14.6;12;;;;;;;1.4;78.77246;943.0899;;;;
2022/01/20 01:46:30;;;;;;;18.9;12.2;;;;;;;0.9;79.91699;943.1472;;;;
2022/01/20 01:48:56;;;;;;;17.6;12.7;;;;;;;0.98;80.14453;943.2008;;;;
2022/01/20 01:51:22;;;;;;;19.9;13.1;;;;;;;1.18;79.91406;943.1096;;;;
2022/01/20 01:53:47;;;;;;;18.6;12.8;;;;;;;1.31;79.42578;943.1442;;;;
2022/01/20 01:56:14;;;;;;;16.8;12.1;;;;;;;1.41;78.85059;943.2019;;;;
2022/01/20 01:58:39;;;;;;;16.4;12.1;;;;;;;1.39;79.21582;943.2228;;;;
2022/01/20 02:01:06;;;;;;;18.4;12.7;;;;;;;1.34;78.72656;943.1998;;;;
2022/01/20 02:03:33;;;;;;;18.2;12.6;;;;;;;1.33;78.68164;943.2199;;;;
2022/01/20 02:06:17;;;;;;;19.4;12.4;;;;;;;1.24;79.33203;943.1089;;;;
2022/01/20 02:08:32;;;;;;;18.1;12.3;;;;;;;1.35;79.24414;943.0939;;;;
2022/01/20 02:18:36;;;;;;;16;11.3;;;;;;;0.68;81.88477;942.9927;;;;
2022/01/20 02:20:32;;;;;;;18.3;11.8;;;;;;;0.63;82.7998;942.878;;;;
2022/01/20 02:23:00;;;;;;;15.1;11.2;;;;;;;0.64;82.83691;942.9058;;;;
2022/01/20 02:25:25;;;;;;;18.3;11.8;;;;;;;0.66;83.21973;942.7244;;;;
2022/01/20 02:27:50;;;;;;;17.5;12;;;;;;;0.69;82.91309;942.9053;;;;
2022/01/20 02:30:16;;;;;;;16.7;11.7;;;;;;;;;;;;;
2022/01/20 02:32:41;;;;;;;15.9;11.1;;;;;;;;;;;;;
2022/01/20 02:35:08;;;;;;;16.8;11.7;;;;;;;;;;;;;
2022/01/20 02:37:32;;;;;;;17.3;11.5;;;;;;;;;;;;;
2022/01/20 02:40:27;;;;;;;15.5;11.3;;;;;;;;;;;;;
2022/01/20 02:44:56;;;;;;;16;11.2;;;;;;;;;;;;;
2022/01/20 02:47:13;;;;;;;15.2;11;;;;;;;;;;;;;
2022/01/20 02:49:39;;;;;;;14.4;10.6;;;;;;;;;;;;;
2022/01/20 02:52:04;;;;;;;15.9;11.4;;;;;;;;;;;;;
2022/01/20 02:54:29;;;;;;;16.7;11.5;;;;;;;;;;;;;
2022/01/20 02:56:54;;;;;;;15.3;11;;;;;;;;;;;;;
2022/01/20 02:59:19;;;;;;;17.2;11.2;;;;;;;;;;;;;
2022/01/20 03:01:45;;;;;;;15.6;11.5;;;;;;;;;;;;;
2022/01/20 03:04:11;;;;;;;14.9;10.6;;;;;;;;;;;;;
2022/01/20 03:06:36;;;;;;;15;11.2;;;;;;;;;;;;;
2022/01/20 03:09:01;;;;;;;15.9;11.4;;;;;;;;;;;;;
2022/01/20 03:11:27;;;;;;;15.6;10.7;;;;;;;;;;;;;
2022/01/20 03:13:52;;;;;;;14.3;10.9;;;;;;;;;;;;;
2022/01/20 03:16:20;;;;;;;16.3;11.5;;;;;;;;;;;;;
2022/01/20 03:18:46;;;;;;;15.2;10.7;;;;;;;;;;;;;
2022/01/20 03:21:12;;;;;;;16;11.1;;;;;;;;;;;;;
2022/01/20 03:23:37;;;;;;;16.4;11.2;;;;;;;;;;;;;
2022/01/20 03:26:03;;;;;;;16.9;11.1;;;;;;;;;;;;;
2022/01/20 03:28:28;;;;;;;14.6;11.1;;;;;;;;;;;;;
2022/01/20 03:30:54;;;;;;;16.1;10.7;;;;;;;;;;;;;
2022/01/20 03:33:19;;;;;;;16.2;10.9;;;;;;;;;;;;;
2022/01/20 03:35:46;;;;;;;14.8;10.3;;;;;;;;;;;;;
2022/01/20 03:38:11;;;;;;;16.1;10.8;;;;;;;;;;;;;
2022/01/20 03:40:36;;;;;;;13.2;9.7;;;;;;;;;;;;;
2022/01/20 03:43:01;;;;;;;13.5;9.3;;;;;;;;;;;;;
2022/01/20 03:45:28;;;;;;;11.8;9;;;;;;;;;;;;;
2022/01/20 03:47:54;;;;;;;12.3;8.9;;;;;;;;;;;;;
2022/01/20 03:51:01;;;;;;;9.9;7.5;;;;;;;;;;;;;
2022/01/20 03:52:42;;;;;;;12.5;8.1;;;;;;;;;;;;;
2022/01/20 03:55:07;;;;;;;12.9;8.7;;;;;;;;;;;;;
2022/01/20 03:57:32;;;;;;;12.2;9.4;;;;;;;;;;;;;
2022/01/20 03:59:58;;;;;;;12.9;9.7;;;;;;;;;;;;;
2022/01/20 04:02:32;;;;;;;12.3;9;;;;;;;2.16;78.49902;941.6036;;;;
2022/01/20 04:05:01;;;;;;;13;9.4;;;;;;;2;79.28613;941.6184;;;;
2022/01/20 04:07:27;;;;;;;13.5;9.3;;;;;;;2.05;79.37305;941.6249;;;;
2022/01/20 04:09:53;;;;;;;13.3;9.5;;;;;;;2.14;79.61523;941.6482;;;;
2022/01/20 04:12:18;;;;;;;12;9.1;;;;;;;2.17;79.22852;941.666;;;;
2022/01/20 04:14:48;;;;;;;12.5;9.5;;;;;;;2.17;79.15039;941.7272;;;;
2022/01/20 04:17:16;;;;;;;11.3;8;;;;;;;2.11;79.37305;941.8318;;;;
2022/01/20 04:19:36;;;;;;;10.7;7.6;;;;;;;2.09;79.43848;941.8525;;;;
2022/01/20 04:22:05;;;;;;;10.1;7.5;;;;;;;2.19;79.09766;941.8547;;;;
2022/01/20 04:24:31;;;;;;;9.2;6.8;;;;;;;2.25;78.53809;941.7656;;;;
2022/01/20 04:26:59;;;;;;;10.8;7.8;;;;;;;2.04;79.0127;941.707;;;;
2022/01/20 04:29:24;;;;;;;10.4;7.5;;;;;;;2.07;79.37793;941.699;;;;
2022/01/20 04:31:52;;;;;;;9.6;7;;;;;;;2.2;79.16602;941.8094;;;;
2022/01/20 04:34:17;;;;;;;10.1;7.8;;;;;;;2.28;79.04688;941.7403;;;;
2022/01/20 04:36:46;;;;;;;9.5;7.3;;;;;;;2.33;79.26953;941.6359;;;;
2022/01/20 04:39:10;;;;;;;10.1;7.5;;;;;;;2.34;78.79004;941.7087;;;;
2022/01/20 04:41:36;;;;;;;10.7;7.9;;;;;;;2.49;78.05469;941.7566;;;;
2022/01/20 04:44:01;;;;;;;9.6;7.1;;;;;;;1.87;80.42383;941.7598;;;;
2022/01/20 04:46:35;;;;;;;8.8;6.8;;;;;;;2.01;80.41602;941.8759;;;;
2022/01/20 04:49:12;;;;;;;8.7;6.9;;;;;;;2.14;80.46582;941.9334;;;;
2022/01/20 04:58:38;;;;;;;10.1;6.9;;;;;;;2.43;79.5459;941.9895;;;;
2022/01/20 05:01:08;;;;;;;9.1;6.6;;;;;;;2.14;80.18457;941.9983;;;;
2022/01/20 05:03:33;;;;;;;9.2;5.8;;;;;;;2.14;80.55566;942.0583;;;;
2022/01/20 05:06:00;;;;;;;11.4;9.2;;;;;;;2.06;80.86523;942.0419;;;;
2022/01/20 05:08:28;;;;;;;7.3;5.9;;;;;;;1.95;81.86133;941.986;;;;
2022/01/20 05:10:52;;;;;;;4.9;4.4;;;;;;;2.19;81.03418;941.9899;;;;
2022/01/20 05:13:26;;;;;;;9.2;7.2;;;;;;;2.32;80.55469;942.0706;;;;
2022/01/20 05:15:52;;;;;;;3.6;3.1;;;;;;;2.42;80.22656;942.1469;;;;
2022/01/20 05:18:24;;;;;;;6.3;4.6;;;;;;;2.45;80.05371;942.1476;;;;
2022/01/20 05:20:49;;;;;;;4.9;3.5;;;;;;;2.34;81.19629;942.2042;;;;
2022/01/20 05:23:17;;;;;;;3.5;2.7;;;;;;;2.5;81.00488;942.2813;;;;
2022/01/20 05:25:42;;;;;;;2.9;2.4;;;;;;;2.66;80.49609;942.2551;;;;
2022/01/20 05:28:07;;;;;;;2.6;2.1;;;;;;;2.68;80.42188;942.2644;;;;
2022/01/20 05:30:38;;;;;;;3.5;2.1;;;;;;;2.81;79.96484;942.3077;;;;
2022/01/20 05:33:03;;;;;;;4.7;3.5;;;;;;;2.92;79.34473;942.3744;;;;
2022/01/20 05:35:30;;;;;;;6.2;4.5;;;;;;;2.94;79.38281;942.38;;;;
2022/01/20 05:37:55;;;;;;;3.6;2.7;;;;;;;3.02;79.15137;942.3967;;;;
2022/01/20 05:40:20;;;;;;;3.5;2.5;;;;;;;3.09;78.88477;942.3596;;;;
2022/01/20 05:42:45;;;;;;;2.8;2.3;;;;;;;3.08;79.27539;942.4308;;;;
2022/01/20 05:45:14;;;;;;;3.3;2.3;;;;;;;3.06;80.01074;942.448;;;;
2022/01/20 05:47:44;;;;;;;2.6;2.1;;;;;;;3.02;81.2041;942.4612;;;;
2022/01/20 05:50:03;;;;;;;2.6;2.2;;;;;;;3.01;82.10059;942.4269;;;;
2022/01/20 05:52:28;;;;;;;2.3;2.1;;;;;;;2.78;84.27539;942.4425;;;;
2022/01/20 05:54:55;;;;;;;2.3;2.1;;;;;;;2.67;85.44336;942.3295;;;;
2022/01/20 05:57:21;;;;;;;2.6;2;;;;;;;2.4;87.41504;942.2557;;;;
2022/01/20 05:59:46;;;;;;;3.3;2.5;;;;;;;2.68;86.3291;942.4059;;;;
2022/01/20 06:02:26;;;;;;;2.7;2.3;;;;;;;2.81;85.86133;942.416;;;;
2022/01/20 06:04:36;;;;;;;3.9;2.4;;;;;;;2.89;85.59961;942.3787;;;;
2022/01/20 06:07:01;;;;;;;3.3;2.6;;;;;;;2.94;85.41797;942.4598;;;;
2022/01/20 06:09:27;;;;;;;3.9;2.7;;;;;;;3.01;85.25293;942.4048;;;;
2022/01/20 06:11:52;;;;;;;3.4;2.5;;;;;;;3.02;85.25488;942.3312;;;;
2022/01/20 06:14:19;;;;;;;3.7;2.5;;;;;;;2.95;85.4873;942.2775;;;;
2022/01/20 06:16:44;;;;;;;3.7;2.8;;;;;;;3;85.40625;942.3434;;;;
2022/01/20 06:19:11;;;;;;;3.8;2.8;;;;;;;3;85.2041;942.3773;;;;
2022/01/20 06:21:37;;;;;;;2.9;2.3;;;;;;;2.83;86.22363;942.3728;;;;
2022/01/20 06:24:04;;;;;;;3.5;2.9;;;;;;;2.71;86.89746;942.5294;;;;
2022/01/20 06:26:29;;;;;;;3.5;2.8;;;;;;;2.79;86.75488;942.4511;;;;
2022/01/20 06:28:56;;;;;;;4.1;3.2;;;;;;;2.72;87.04297;942.3394;;;;
2022/01/20 06:31:22;;;;;;;4.3;2.9;;;;;;;2.69;86.99219;942.4286;;;;
2022/01/20 06:33:48;;;;;;;3.2;2.8;;;;;;;2.72;86.78711;942.3742;;;;
2022/01/20 06:36:14;;;;;;;5;3.7;;;;;;;2.56;87.94141;942.3184;;;;
2022/01/20 06:38:42;;;;;;;3.4;2.7;;;;;;;2.52;88.23633;942.2783;;;;
2022/01/20 06:41:05;;;;;;;5.1;3.7;;;;;;;2.6;88.31934;942.3234;;;;
2022/01/20 06:43:35;;;;;;;4;3.3;;;;;;;2.69;87.81055;942.2751;;;;
2022/01/20 06:46:00;;;;;;;6.9;4.2;;;;;;;2.74;87.35156;942.2886;;;;
2022/01/20 06:48:26;;;;;;;5.2;3.9;;;;;;;2.75;87.45605;942.3725;;;;
2022/01/20 06:50:51;;;;;;;10;6.6;;;;;;;2.69;87.6875;942.3097;;;;
2022/01/20 06:53:18;;;;;;;8.9;6.9;;;;;;;2.76;87.86133;942.3153;;;;
2022/01/20 06:55:43;;;;;;;10.8;7.8;;;;;;;2.73;87.52832;942.3398;;;;
2022/01/20 06:58:10;;;;;;;10.3;7.4;;;;;;;2.77;87.3457;942.4169;;;;
2022/01/20 07:00:36;;;;;;;8.8;6.9;;;;;;;2.83;87.19043;942.4713;;;;
2022/01/20 07:03:02;;;;;;;10;7.2;;;;;;;2.9;86.46289;942.5097;;;;
2022/01/20 07:05:27;;;;;;;10.8;7.5;;;;;;;2.85;86.65527;942.5265;;;;
2022/01/20 07:07:54;;;;;;;10.5;8.2;;;;;;;2.75;87.27441;942.4084;;;;
2022/01/20 07:10:19;;;;;;;6.8;5.8;;;;;;;2.85;87.02539;942.4579;;;;
2022/01/20 07:12:47;;;;;;;9.2;5.8;;;;;;;2.58;87.70117;942.4885;;;;
2022/01/20 07:15:12;;;;;;;7.1;5.3;;;;;;;2.58;88.05762;942.4474;;;;
2022/01/20 07:17:42;;;;;;;6.8;5.1;;;;;;;2.67;88.06641;942.5197;;;;
2022/01/20 07:20:10;;;;;;;7.1;5;;;;;;;2.71;87.60352;942.6113;;;;
2022/01/20 07:22:35;;;;;;;6.5;4.9;;;;;;;2.66;87.89453;942.6325;;;;
2022/01/20 07:25:02;;;;;;;8.4;5.1;;;;;;;2.76;87.81641;942.4584;;;;
2022/01/20 07:27:29;;;;;;;6.2;4.9;;;;;;;2.84;87.71973;942.526;;;;
2022/01/20 07:29:54;;;;;;;6.3;5.3;;;;;;;2.86;87.41113;942.4146;;;;
2022/01/20 07:32:19;;;;;;;6.8;5.2;;;;;;;2.85;87.31738;942.2283;;;;
2022/01/20 07:34:44;;;;;;;7;5;;;;;;;2.88;87.48047;942.4892;;;;
2022/01/20 07:37:12;;;;;;;7.6;4.9;;;;;;;2.8;87.85742;942.4653;;;;
2022/01/20 07:39:37;;;;;;;8.9;7.4;;;;;;;2.56;89.55566;942.5496;;;;
2022/01/20 07:42:05;;;;;;;7.3;6.5;;;;;;;2.78;88.58301;942.5584;;;;
2022/01/20 07:44:29;;;;;;;8.1;5.8;;;;;;;2.82;88.13086;942.4442;;;;
2022/01/20 07:46:57;;;;;;;11.6;8.4;;;;;;;2.74;88.13574;942.563;;;;
2022/01/20 07:49:22;;;;;;;12.2;8.6;;;;;;;2.84;88.01074;942.5125;;;;
2022/01/20 07:51:48;;;;;;;12.6;9.6;;;;;;;2.92;87.70215;942.4014;;;;
2022/01/20 07:54:13;;;;;;;15.6;11.4;;;;;;;3.01;86.69824;942.4133;;;;
2022/01/20 07:56:39;;;;;;;13.4;9.3;;;;;;;3;86.54102;942.4442;;;;
2022/01/20 07:59:06;;;;;;;17.5;13.3;;;;;;;2.98;86.91895;942.4222;;;;
2022/01/20 08:01:33;;;;;;;11.5;9.1;;;;;;;3.01;86.78027;942.4648;;;;
2022/01/20 08:03:59;;;;;;;8.8;7;;;;;;;2.82;87.13086;942.6019;;;;
2022/01/20 08:06:25;;;;;;;6.9;5.6;;;;;;;2.68;88.13379;942.5678;;;;
2022/01/20 08:08:50;;;;;;;7.1;6;;;;;;;2.78;88.13184;942.585;;;;
2022/01/20 08:11:18;;;;;;;7.3;5.4;;;;;;;2.71;88.36621;942.6817;;;;
2022/01/20 08:13:43;;;;;;;8.2;5.7;;;;;;;2.82;88.07227;942.6076;;;;
2022/01/20 08:16:15;;;;;;;7;5.1;;;;;;;3;87.91895;942.5054;;;;
2022/01/20 08:18:41;;;;;;;5.3;4.4;;;;;;;3.01;87.1377;942.4545;;;;
2022/01/20 08:21:07;;;;;;;5.1;4.4;;;;;;;3;87.22363;942.5346;;;;
2022/01/20 08:23:36;;;;;;;6.5;4.3;;;;;;;3.13;87.11914;942.3292;;;;
2022/01/20 08:26:09;;;;;;;5;4.4;;;;;;;3.16;86.72949;942.5198;;;;
2022/01/20 08:28:38;;;;;;;5.2;4.4;;;;;;;2.92;87.9043;942.543;;;;
2022/01/20 08:31:03;;;;;;;6.8;4.8;;;;;;;3.1;87.23242;942.6116;;;;
2022/01/20 08:33:33;;;;;;;6.3;4.3;;;;;;;3.17;87.14648;942.6744;;;;
2022/01/20 08:35:58;;;;;;;7.1;4.7;;;;;;;3.23;86.54199;942.8146;;;;
2022/01/20 08:38:27;;;;;;;7.2;5.4;;;;;;;3.19;86.7168;942.7583;;;;
2022/01/20 08:40:52;;;;;;;5;3.9;;;;;;;3.19;86.80469;942.7919;;;;
2022/01/20 08:43:17;;;;;;;5.4;4.1;;;;;;;3.25;86.60254;942.8178;;;;
2022/01/20 08:45:46;;;;;;;8.3;5.7;;;;;;;3.32;86.24609;942.7459;;;;
2022/01/20 08:48:12;;;;;;;6.2;5.1;;;;;;;3.37;86.0332;942.8058;;;;
2022/01/20 08:50:35;;;;;;;6.5;4.6;;;;;;;3.43;85.61719;942.913;;;;
2022/01/20 08:53:01;;;;;;;7.5;4.6;;;;;;;3.52;85.19727;943.017;;;;
2022/01/20 08:55:28;;;;;;;8.2;5.1;;;;;;;3.49;85.23633;943.0466;;;;
2022/01/20 08:57:54;;;;;;;7;5.1;;;;;;;3.58;85.09766;943.0521;;;;
2022/01/20 09:00:20;;;;;;;8.3;5.3;;;;;;;3.6;84.95508;942.9409;;;;
2022/01/20 09:02:44;;;;;;;9.1;6;;;;;;;3.71;83.89746;942.9249;;;;
2022/01/20 09:05:15;;;;;;;8.8;5.6;;;;;;;3.39;86.1709;943.005;;;;
2022/01/20 09:07:42;;;;;;;11.7;8.7;;;;;;;3.51;85.58887;943.0126;;;;
2022/01/20 09:10:08;;;;;;;10.8;8;;;;;;;3.65;85.33691;942.9617;;;;
2022/01/20 09:17:30;;;;;;;11.2;7.6;;;;;;;3.45;85.56641;942.9322;;;;
2022/01/20 09:20:03;;;;;;;9.5;7.1;;;;;;;3.17;86.41895;942.951;;;;
2022/01/20 09:22:22;;;;;;;7.8;5.3;;;;;;;3.1;86.88672;943.0359;;;;
2022/01/20 09:24:47;;;;;;;14.8;8.6;;;;;;;3.29;87.29785;942.9888;;;;
2022/01/20 09:27:15;;;;;;;5.6;4.6;;;;;;;3.4;85.65625;943.0563;;;;
2022/01/20 09:29:40;;;;;;;5.5;4.2;;;;;;;3.67;84.99219;943.1941;;;;
2022/01/20 09:32:08;;;;;;;5.8;4.4;;;;;;;3.7;84.42578;943.2678;;;;
2022/01/20 09:34:32;;;;;;;5.1;3.5;;;;;;;3.77;83.25684;943.2303;;;;
2022/01/20 09:36:59;;;;;;;3.4;2.9;;;;;;;3.74;82.35449;943.0386;;;;
2022/01/20 09:39:24;;;;;;;4.5;3.5;;;;;;;3.91;81.8584;943.0958;;;;
2022/01/20 09:41:50;;;;;;;5.1;3.7;;;;;;;3.89;81.41504;943.1192;;;;
2022/01/20 09:44:15;;;;;;;5.3;4.1;;;;;;;3.64;82.3125;943.0211;;;;
2022/01/20 09:46:41;;;;;;;1.9;1.6;;;;;;;3.45;81.45605;943.0424;;;;
2022/01/20 09:49:11;;;;;;;2.5;1.9;;;;;;;3.57;81.26465;943.1767;;;;
2022/01/20 09:51:35;;;;;;;7.1;4;;;;;;;3.78;80.30469;943.1144;;;;
2022/01/20 09:54:03;;;;;;;1;0.9;;;;;;;3.71;78.30176;943.046;;;;
2022/01/20 09:56:27;;;;;;;3.6;3.1;;;;;;;3.78;78.57324;943.2603;;;;
2022/01/20 09:58:57;;;;;;;2.9;2;;;;;;;3.75;79.75977;943.2587;;;;
2022/01/20 10:01:25;;;;;;;2.4;1.8;;;;;;;3.77;80.04395;943.3635;;;;
2022/01/20 10:03:50;;;;;;;2.7;1.9;;;;;;;3.99;79.33105;943.455;;;;
2022/01/20 10:06:20;;;;;;;3.6;2.6;;;;;;;4.08;78.69629;943.5056;;;;
2022/01/20 10:08:45;;;;;;;5.6;3.8;;;;;;;3.58;79.12109;943.3158;;;;
2022/01/20 10:11:16;;;;;;;6.3;5.2;;;;;;;3.55;80.19238;943.415;;;;
2022/01/20 10:13:42;;;;;;;3.2;2.3;;;;;;;3.85;79.55371;943.4832;;;;
2022/01/20 10:16:09;;;;;;;4.1;2.9;;;;;;;3.83;79.83105;943.5262;;;;
2022/01/20 10:18:39;;;;;;;4.6;2.7;;;;;;;3.73;80.71191;943.5762;;;;
2022/01/20 10:21:05;;;;;;;4.6;2.5;;;;;;;3.72;81.32617;943.6764;;;;
2022/01/20 10:23:30;;;;;;;31.9;19.4;;;;;;;3.72;80.94434;943.6125;;;;
2022/01/20 10:25:57;;;;;;;6.4;4.8;;;;;;;3.29;83.04102;943.5048;;;;
2022/01/20 10:28:22;;;;;;;5;3.2;;;;;;;3.52;82.36816;943.5407;;;;
2022/01/20 10:30:50;;;;;;;2.5;2.3;;;;;;;3.65;82.50488;943.5491;;;;
2022/01/20 10:33:15;;;;;;;3.1;1.8;;;;;;;3.44;83.18359;943.4609;;;;
2022/01/20 10:35:41;;;;;;;2.3;1.5;;;;;;;3.88;82.86328;943.4109;;;;
2022/01/20 10:38:13;;;;;;;3;1.5;;;;;;;3.14;84.5957;943.3398;;;;
2022/01/20 10:40:31;;;;;;;2.2;1.4;;;;;;;3.23;85.15039;943.2928;;;;
2022/01/20 10:42:56;;;;;;;2;1.6;;;;;;;3.34;84.4668;943.1785;;;;
2022/01/20 10:45:21;;;;;;;3.8;2.8;;;;;;;3.17;86.14941;943.1711;;;;
2022/01/20 10:47:51;;;;;;;2.6;1.9;;;;;;;3.04;87.24414;943.2626;;;;
2022/01/20 10:50:23;;;;;;;2.7;1.4;;;;;;;3.36;85.88281;943.1262;;;;
2022/01/20 10:52:46;;;;;;;2.6;1.8;;;;;;;3.42;86.24609;943.0923;;;;
2022/01/20 10:55:14;;;;;;;3;2.7;;;;;;;3.32;86.30273;943.1102;;;;
2022/01/20 10:57:39;;;;;;;2.3;2;;;;;;;3.48;86.06543;943.1294;;;;
2022/01/20 11:00:04;;;;;;;2.6;1.4;;;;;;;3.5;86.39551;942.9681;;;;
2022/01/20 11:02:33;;;;;;;4.9;2.5;;;;;;;3.45;86.375;943.1245;;;;
2022/01/20 11:04:57;;;;;;;1.8;1.3;;;;;;;3.55;85.7998;943.1091;;;;
2022/01/20 11:07:23;;;;;;;2.3;1;;;;;;;3.43;86.2793;943.0761;;;;
2022/01/20 11:09:55;;;;;;;5.7;2.9;;;;;;;3.45;86.43066;943.1393;;;;
2022/01/20 11:12:15;;;;;;;2.9;1.7;;;;;;;3.22;87.31543;943.1262;;;;
2022/01/20 11:14:44;;;;;;;2.6;2.4;;;;;;;3.42;86.88574;943.1049;;;;
2022/01/20 11:17:13;;;;;;;2.2;1.5;;;;;;;3.46;86.87109;943.1075;;;;
2022/01/20 11:19:40;;;;;;;6.9;3.8;;;;;;;3.58;86.24316;943.1315;;;;
2022/01/20 11:22:11;;;;;;;7.5;4.8;;;;;;;3.31;86.91992;943.1345;;;;
2022/01/20 11:24:38;;;;;;;10.4;6.4;;;;;;;3.12;88.06934;943.1861;;;;
2022/01/20 11:27:03;;;;;;;7.1;4.8;;;;;;;2.77;89.17285;943.3922;;;;
2022/01/20 11:29:28;;;;;;;19.8;10.6;;;;;;;2.66;90.85449;943.3876;;;;
2022/01/20 11:31:57;;;;;;;3;2;;;;;;;3.19;89.22852;943.4213;;;;
2022/01/20 11:34:24;;;;;;;2.3;1.6;;;;;;;3.43;87.41406;943.4029;;;;
2022/01/20 11:36:50;;;;;;;3;2.1;;;;;;;3.54;85.80762;943.3588;;;;
2022/01/20 11:39:15;;;;;;;2.6;1.6;;;;;;;3.5;84.77832;943.4406;;;;
2022/01/20 11:41:43;;;;;;;3.9;1.1;;;;;;;3.47;83.76367;943.437;;;;
2022/01/20 11:44:10;;;;;;;1;0.6;;;;;;;3.48;82.31445;943.3828;;;;
2022/01/20 11:46:36;;;;;;;15;7.3;;;;;;;3.51;82.6123;943.4064;;;;
2022/01/20 11:49:01;;;;;;;1.9;1.2;;;;;;;3.45;82.08496;943.2598;;;;
2022/01/20 11:51:26;;;;;;;0.9;0.9;;;;;;;3.33;81.1416;943.3117;;;;
2022/01/20 11:53:55;;;;;;;1;0.9;;;;;;;3.39;79.50098;943.1316;;;;
2022/01/20 11:56:20;;;;;;;0.8;0.8;;;;;;;3.43;78.58887;943.1456;;;;
2022/01/20 11:58:48;;;;;;;1.4;0.8;;;;;;;3.62;76.97168;943.1234;;;;
2022/01/20 12:01:13;;;;;;;2;1.6;;;;;;;3.84;77.25684;943.1501;;;;
2022/01/20 12:03:41;;;;;;;2.1;1.9;;;;;;;3.96;78.86523;943.1497;;;;
2022/01/20 12:06:07;;;;;;;1.8;1.3;;;;;;;3.87;81.02734;943.2262;;;;
2022/01/20 12:08:35;;;;;;;2.9;1.6;;;;;;;3.79;82.56543;943.1817;;;;
2022/01/20 12:11:00;;;;;;;4.3;1.5;;;;;;;3.67;81.8457;943.2347;;;;
2022/01/20 12:13:30;;;;;;;1.2;1.1;;;;;;;3.76;80.3457;943.1362;;;;
2022/01/20 12:16:02;;;;;;;3.8;2.2;;;;;;;3.94;81.09961;943.1136;;;;
2022/01/20 12:18:28;;;;;;;2.7;1.1;;;;;;;3.82;79.83887;943.0642;;;;
2022/01/20 12:20:56;;;;;;;4.3;2.8;;;;;;;3.87;77.51074;943.0491;;;;
2022/01/20 12:23:24;;;;;;;3.9;2.4;;;;;;;3.91;76.62012;943.0381;;;;
2022/01/20 12:25:48;;;;;;;2.5;1.7;;;;;;;3.88;74.77148;942.9968;;;;
2022/01/20 12:28:14;;;;;;;2;1.5;;;;;;;3.69;76.48926;943.0358;;;;
2022/01/20 12:30:47;;;;;;;1;0.9;;;;;;;3.98;75.39453;943.0017;;;;
2022/01/20 12:33:11;;;;;;;0.8;0.8;;;;;;;4.16;75.44824;943.0463;;;;
2022/01/20 12:35:32;;;;;;;1.7;1.6;;;;;;;3.88;75.42188;943.0564;;;;
2022/01/20 12:37:58;;;;;;;4.5;3.5;;;;;;;4.01;77.39063;943.0639;;;;
2022/01/20 12:40:23;;;;;;;1.5;1.2;;;;;;;4.18;75.21582;943.1433;;;;
2022/01/20 12:42:49;;;;;;;4;2.6;;;;;;;4.22;73.93945;943.0499;;;;
2022/01/20 12:47:40;;;;;;;1.2;1;;;;;;;3.99;73.91113;943.0139;;;;
2022/01/20 12:50:09;;;;;;;11.7;6.8;;;;;;;3.8;76.8584;942.8884;;;;
2022/01/20 12:52:34;;;;;;;15.7;8.9;;;;;;;3.88;77.00781;942.848;;;;
2022/01/20 12:55:00;;;;;;;2.3;2.1;;;;;;;3.83;77.89648;942.8795;;;;
2022/01/20 12:57:25;;;;;;;4.1;1.6;;;;;;;3.81;78.65723;942.8536;;;;
2022/01/20 12:59:54;;;;;;;3.3;1.3;;;;;;;4.07;77.68164;942.7946;;;;
2022/01/20 13:02:20;;;;;;;1.2;1.1;;;;;;;4.43;76.41992;942.6984;;;;
2022/01/20 13:04:42;;;;;;;0.6;0.6;;;;;;;4.17;71.7832;942.7512;;;;
2022/01/20 13:07:09;;;;;;;1.1;1;;;;;;;4.41;71.65625;942.7151;;;;
2022/01/20 13:09:32;;;;;;;1.3;0.8;;;;;;;4.56;73.50391;942.697;;;;
2022/01/20 13:11:59;;;;;;;1.3;0.7;;;;;;;4.68;73.37891;942.6462;;;;
2022/01/20 13:14:22;;;;;;;0.8;0.8;;;;;;;4.84;73.08008;942.6739;;;;
2022/01/20 13:16:47;;;;;;;1.1;0.9;;;;;;;5.01;71.7793;942.6475;;;;
2022/01/20 13:19:12;;;;;;;1.3;0.8;;;;;;;5.07;69.97363;942.6259;;;;
2022/01/20 13:21:38;;;;;;;1.7;1;;;;;;;4.98;70.27441;942.5458;;;;
2022/01/20 13:24:06;;;;;;;2.9;0.8;;;;;;;5.31;67.46387;942.4171;;;;
2022/01/20 13:26:30;;;;;;;1.3;1.1;;;;;;;5.32;66.3252;942.4733;;;;
2022/01/20 13:28:58;;;;;;;6.3;3.6;;;;;;;5.3;66.23145;942.5325;;;;
2022/01/20 13:31:23;;;;;;;4.2;2.9;;;;;;;4.87;66.26758;942.5314;;;;
2022/01/20 13:33:49;;;;;;;2.9;1.8;;;;;;;4.97;64.81738;942.5919;;;;
2022/01/20 13:36:13;;;;;;;1;0.9;;;;;;;5.01;61.56738;942.5638;;;;
2022/01/20 13:38:45;;;;;;;1.5;1.3;;;;;;;5.14;59.00293;942.6332;;;;
2022/01/20 13:41:06;;;;;;;2.2;1.4;;;;;;;5.29;62.8584;942.5527;;;;
2022/01/20 13:45:54;;;;;;;6.5;4.9;;;;;;;5.24;64.5752;942.6583;;;;
2022/01/20 13:48:19;;;;;;;5.3;3.7;;;;;;;5.56;63.45215;942.5991;;;;
2022/01/20 13:50:47;;;;;;;3.4;1.7;;;;;;;5.47;58.9248;942.6512;;;;
2022/01/20 13:53:11;;;;;;;1.1;0.8;;;;;;;5.2;56.95801;942.6741;;;;
2022/01/20 13:55:39;;;;;;;0.4;0.4;;;;;;;5.07;56.59082;942.7156;;;;
2022/01/20 13:58:04;;;;;;;0.7;0.4;;;;;;;5.28;57.92871;942.7477;;;;
2022/01/20 14:00:29;;;;;;;0.5;0.3;;;;;;;5.32;57.30176;942.7665;;;;
2022/01/20 14:02:56;;;;;;;2.9;0.8;;;;;;;5.27;60.36133;942.7715;;;;
2022/01/20 14:05:21;;;;;;;1.1;0.8;;;;;;;5.43;60.03711;942.7525;;;;
2022/01/20 14:07:49;;;;;;;1.2;0.9;;;;;;;5.68;59.15527;942.7219;;;;
2022/01/20 14:10:13;;;;;;;1.3;1;;;;;;;5.74;60.30664;942.7866;;;;
2022/01/20 14:12:40;;;;;;;1.6;1.5;;;;;;;5.92;58.28613;942.8953;;;;
2022/01/20 14:15:05;;;;;;;33.2;16.4;;;;;;;5.98;59.02734;942.8608;;;;
2022/01/20 14:17:35;;;;;;;1.2;1;;;;;;;5.79;58.12207;942.8325;;;;
2022/01/20 14:19:59;;;;;;;0.9;0.7;;;;;;;5.49;57.50586;942.6694;;;;
2022/01/20 14:22:21;;;;;;;0.5;0.5;;;;;;;5.54;58.39258;942.7784;;;;
2022/01/20 14:24:47;;;;;;;3.7;2.3;;;;;;;5.09;59.89746;942.7033;;;;
2022/01/20 14:27:15;;;;;;;2.5;1.8;;;;;;;4.51;58.76953;942.6244;;;;
2022/01/20 14:29:37;;;;;;;6;3.8;;;;;;;4.81;63.39746;942.7383;;;;
2022/01/20 14:32:04;;;;;;;4.2;2.8;;;;;;;4.78;63.63867;942.6821;;;;
2022/01/20 14:34:29;;;;;;;7.3;4.5;;;;;;;4.92;65.93652;942.7698;;;;
2022/01/20 14:36:54;;;;;;;3.2;2.1;;;;;;;4.89;65.41406;942.7719;;;;
2022/01/20 14:39:20;;;;;;;3;2;;;;;;;5.02;64.65723;942.7473;;;;
2022/01/20 14:41:48;;;;;;;6.4;5.4;;;;;;;5.01;62.7041;942.8565;;;;
2022/01/20 14:44:13;;;;;;;2.5;1.6;;;;;;;5;62.43262;942.7688;;;;
2022/01/20 14:46:43;;;;;;;1.6;1;;;;;;;5.01;59.84082;942.757;;;;
2022/01/20 14:49:08;;;;;;;1.3;0.9;;;;;;;5.04;58.48047;942.7274;;;;
2022/01/20 14:51:33;;;;;;;2.8;1.9;;;;;;;4.74;65.48145;942.8173;;;;
2022/01/20 14:53:59;;;;;;;2.6;2.1;;;;;;;4.91;65.75488;942.7475;;;;
2022/01/20 14:56:25;;;;;;;1.8;1.5;;;;;;;4.94;60.7666;942.7745;;;;
2022/01/20 14:58:51;;;;;;;1;0.9;;;;;;;4.5;57.47363;942.7383;;;;
2022/01/20 15:01:19;;;;;;;0.7;0.7;;;;;;;4.63;57.92969;942.7255;;;;
2022/01/20 15:03:44;;;;;;;2.1;1.5;;;;;;;4.58;56.2334;942.6941;;;;
2022/01/20 15:06:10;;;;;;;2;1.6;;;;;;;4.49;56.03027;942.6975;;;;
2022/01/20 15:08:35;;;;;;;2.2;1.2;;;;;;;4.46;56.57813;942.6774;;;;
2022/01/20 15:11:03;;;;;;;3.7;2.1;;;;;;;4.44;61.20313;942.6436;;;;
2022/01/20 15:13:28;;;;;;;2.4;1.8;;;;;;;4.47;64.42676;942.7023;;;;
2022/01/20 15:16:00;;;;;;;5.1;3.3;;;;;;;4.37;67.73047;942.6509;;;;
2022/01/20 15:18:26;;;;;;;1.9;1.5;;;;;;;4.41;66.5;942.6906;;;;
2022/01/20 15:20:51;;;;;;;1.3;1.1;;;;;;;4.45;65.37988;942.6834;;;;
2022/01/20 15:23:19;;;;;;;2.9;1.6;;;;;;;4.56;66.0166;942.6855;;;;
2022/01/20 15:25:45;;;;;;;6.7;4.3;;;;;;;4.55;66.31836;942.5958;;;;
2022/01/20 15:28:12;;;;;;;0.7;0.7;;;;;;;4.3;58.16602;942.603;;;;
2022/01/20 15:30:36;;;;;;;1.7;1.2;;;;;;;4.42;59.79297;942.5311;;;;
2022/01/20 15:33:02;;;;;;;2.7;1.6;;;;;;;4.45;61.125;942.6417;;;;
2022/01/20 15:35:27;;;;;;;1.1;0.7;;;;;;;4.15;54.56836;942.6939;;;;
2022/01/20 15:37:54;;;;;;;1.1;0.8;;;;;;;4.16;60.2959;942.7571;;;;